Time;durP1;ratioP1;P1;durP2;ratioP2;P2;SDS_P1;SDS_P2;PMS_P1;PMS_P2;Temp;Humidity;BMP_temperature;BMP_pressure;BME280_temperature;BME280_humidity;BME280_pressure;Samples;Min_cycle;Max_cycle;Signal;HPM_P1;HPM_P2
2022/10/07 00:00:47;;;;;;;15.68;2.90;;;;;;;11.16;100.00;101292.78;5003439;28;20532;-72
2022/10/07 00:03:13;;;;;;;16.10;2.60;;;;;;;11.19;100.00;101291.44;5006368;28;20025;-71
2022/10/07 00:05:39;;;;;;;22.05;4.38;;;;;;;11.22;100.00;101282.75;5026116;28;20045;-72
2022/10/07 00:08:04;;;;;;;19.75;3.55;;;;;;;11.25;100.00;101284.16;5012694;28;20029;-71
2022/10/07 00:10:30;;;;;;;9.60;2.25;;;;;;;11.22;100.00;101269.06;5042455;28;20044;-73
2022/10/07 00:12:55;;;;;;;11.52;1.67;;;;;;;11.22;100.00;101279.19;5040616;28;20678;-72
2022/10/07 00:15:22;;;;;;;14.18;1.80;;;;;;;11.21;100.00;101272.84;5034830;28;20033;-72
2022/10/07 00:17:48;;;;;;;11.73;1.50;;;;;;;11.21;100.00;101278.34;5028665;28;20405;-71
2022/10/07 00:20:13;;;;;;;14.50;2.28;;;;;;;11.25;100.00;101279.50;4989019;28;20057;-72
2022/10/07 00:22:39;;;;;;;19.52;2.75;;;;;;;11.26;100.00;101270.22;5033853;28;20021;-73
2022/10/07 00:25:05;;;;;;;17.40;1.70;;;;;;;11.34;100.00;101274.44;5020949;28;20049;-71
2022/10/07 00:27:30;;;;;;;9.73;1.90;;;;;;;11.44;100.00;101271.84;5038138;28;20037;-73
2022/10/07 00:29:55;;;;;;;10.60;2.10;;;;;;;11.53;100.00;101269.50;5026757;28;20030;-72
2022/10/07 00:32:21;;;;;;;11.95;2.58;;;;;;;11.56;100.00;101259.97;5009322;28;20468;-73
2022/10/07 00:34:46;;;;;;;22.75;4.10;;;;;;;11.62;100.00;101261.69;5014633;28;20250;-72
2022/10/07 00:37:12;;;;;;;13.93;2.63;;;;;;;11.72;100.00;101261.00;5015139;28;20029;-72
2022/10/07 00:39:37;;;;;;;13.25;2.10;;;;;;;11.86;100.00;101267.78;5004332;28;20033;-73
2022/10/07 00:42:02;;;;;;;13.40;1.60;;;;;;;11.84;100.00;101253.47;4999806;28;20109;-72
2022/10/07 00:44:31;;;;;;;10.30;1.98;;;;;;;11.78;100.00;101255.31;5032463;28;20037;-73
2022/10/07 00:47:21;;;;;;;7.57;1.40;;;;;;;11.68;100.00;101255.19;5041183;28;20037;-72
2022/10/07 00:50:01;;;;;;;12.23;1.98;;;;;;;11.56;100.00;101244.34;5007068;28;20028;-73
2022/10/07 00:52:33;;;;;;;10.73;1.38;;;;;;;11.49;100.00;101235.47;5061429;28;20056;-73
2022/10/07 00:55:08;;;;;;;7.30;1.40;;;;;;;11.48;100.00;101244.81;5050502;28;20033;-72
2022/10/07 00:57:43;;;;;;;11.20;1.40;;;;;;;11.38;100.00;101236.44;5012465;28;20023;-72
2022/10/07 01:00:30;;;;;;;6.40;1.13;;;;;;;11.38;100.00;101234.53;5010726;28;20126;-73
2022/10/07 01:03:26;;;;;;;7.95;1.55;;;;;;;11.39;100.00;101240.81;5029185;28;20084;-73
2022/10/07 01:05:54;;;;;;;6.00;0.70;;;;;;;11.44;100.00;101228.03;4982572;28;20064;-73
2022/10/07 01:08:23;;;;;;;9.98;1.65;;;;;;;11.58;100.00;101231.25;5041255;28;20049;-71
2022/10/07 01:11:03;;;;;;;5.03;0.90;;;;;;;11.63;100.00;101227.75;5013058;28;20033;-72
2022/10/07 01:14:14;;;;;;;3.70;1.20;;;;;;;11.64;100.00;101224.75;5014054;28;20035;-72
2022/10/07 01:17:10;;;;;;;16.90;2.08;;;;;;;11.70;100.00;101215.50;5005178;28;20027;-72
2022/10/07 01:20:11;;;;;;;11.60;1.13;;;;;;;11.85;100.00;101216.78;5037371;28;20047;-72
2022/10/07 01:23:05;;;;;;;8.18;1.77;;;;;;;11.95;99.57;101211.47;4973451;28;20041;-72
2022/10/07 01:26:03;;;;;;;12.27;1.80;;;;;;;12.04;99.06;101209.09;5006062;28;20060;-72
2022/10/07 01:28:48;;;;;;;8.30;1.10;;;;;;;12.10;98.35;101201.75;5009231;28;20680;-71
2022/10/07 01:31:20;;;;;;;10.23;1.42;;;;;;;12.15;98.52;101199.06;4993686;28;20034;-73
2022/10/07 01:33:48;;;;;;;7.13;1.30;;;;;;;12.17;98.10;101199.66;5034984;28;20064;-73
2022/10/07 01:36:17;;;;;;;7.75;1.80;;;;;;;12.22;97.96;101194.19;5062051;28;20033;-72
2022/10/07 01:38:48;;;;;;;7.55;1.40;;;;;;;12.23;97.58;101182.16;5017214;28;20025;-73
2022/10/07 01:41:17;;;;;;;8.93;1.65;;;;;;;12.25;97.08;101177.25;5026935;28;20025;-71
2022/10/07 01:43:51;;;;;;;5.97;1.23;;;;;;;12.32;97.58;101188.81;5014313;28;20056;-72
2022/10/07 01:46:21;;;;;;;8.40;1.60;;;;;;;12.36;97.40;101181.72;5033028;28;20048;-72
2022/10/07 01:48:46;;;;;;;11.23;2.28;;;;;;;12.38;97.29;101171.34;5028694;28;20096;-71
2022/10/07 01:51:13;;;;;;;10.23;1.95;;;;;;;12.40;97.29;101165.59;5025940;28;20025;-72
2022/10/07 01:53:48;;;;;;;7.28;1.17;;;;;;;12.43;97.61;101162.34;5032530;28;20503;-72
2022/10/07 01:56:16;;;;;;;7.10;1.50;;;;;;;12.45;96.91;101165.63;5060183;28;20442;-71
2022/10/07 01:59:05;;;;;;;8.75;1.83;;;;;;;12.48;97.88;101145.09;5025560;28;20033;-72
2022/10/07 02:01:53;;;;;;;8.82;1.27;;;;;;;12.52;97.56;101151.72;5011784;28;20032;-71
2022/10/07 02:04:35;;;;;;;8.85;1.48;;;;;;;12.54;97.11;101142.13;5021524;28;20030;-71
2022/10/07 02:07:20;;;;;;;11.63;1.50;;;;;;;12.56;97.39;101128.97;5030825;28;20040;-72
2022/10/07 02:09:51;;;;;;;4.90;1.15;;;;;;;12.58;96.34;101126.78;5050441;28;20037;-72
2022/10/07 02:12:34;;;;;;;2.17;0.75;;;;;;;12.58;96.26;101125.97;5027168;28;20018;-72
2022/10/07 02:15:07;;;;;;;3.33;0.75;;;;;;;12.57;95.34;101119.66;5020538;28;20021;-72
2022/10/07 02:17:39;;;;;;;3.33;1.00;;;;;;;12.45;95.32;101115.44;5052568;28;20037;-72
2022/10/07 02:20:09;;;;;;;6.15;1.48;;;;;;;12.37;95.44;101101.13;5037656;28;20462;-71
2022/10/07 02:22:37;;;;;;;6.72;1.13;;;;;;;12.38;94.91;101099.19;5021684;28;20032;-71
2022/10/07 02:25:04;;;;;;;6.40;1.13;;;;;;;12.35;95.35;101095.06;5014566;28;20030;-72
2022/10/07 02:27:35;;;;;;;5.50;0.90;;;;;;;12.31;95.29;101088.44;4984561;28;20043;-70
2022/10/07 02:30:08;;;;;;;5.20;0.95;;;;;;;12.25;95.11;101089.50;5031893;28;20032;-71
2022/10/07 02:32:35;;;;;;;4.05;1.00;;;;;;;12.17;94.48;101087.22;5038856;28;20036;-72
2022/10/07 02:35:06;;;;;;;3.65;1.05;;;;;;;12.08;95.50;101075.09;5024387;28;20033;-71
2022/10/07 02:37:34;;;;;;;5.40;1.17;;;;;;;11.95;95.39;101071.69;5029883;28;20408;-72
2022/10/07 02:40:03;;;;;;;4.43;0.95;;;;;;;11.89;95.81;101075.44;5008934;28;20032;-72
2022/10/07 02:42:38;;;;;;;5.40;0.88;;;;;;;11.80;96.50;101077.00;5064311;28;20060;-72
2022/10/07 02:45:31;;;;;;;7.53;0.90;;;;;;;11.78;96.33;101079.97;5018558;28;20021;-72
2022/10/07 02:48:14;;;;;;;10.52;1.70;;;;;;;11.78;96.60;101073.66;5019999;28;20305;-72
2022/10/07 02:50:46;;;;;;;5.30;0.88;;;;;;;11.78;97.18;101068.19;5007981;28;20035;-72
2022/10/07 02:53:12;;;;;;;3.42;1.00;;;;;;;11.71;97.04;101065.66;5059503;28;20098;-71
2022/10/07 02:55:39;;;;;;;8.80;1.00;;;;;;;11.72;97.02;101070.03;4998620;28;20134;-72
2022/10/07 02:58:06;;;;;;;4.05;1.10;;;;;;;11.69;97.57;101065.91;5001729;28;20052;-71
2022/10/07 03:00:37;;;;;;;5.38;0.98;;;;;;;11.69;97.32;101065.91;4998541;28;20021;-72
2022/10/07 03:03:04;;;;;;;6.13;0.82;;;;;;;11.81;97.88;101062.19;5056287;28;20037;-72
2022/10/07 03:05:31;;;;;;;3.78;0.80;;;;;;;11.95;97.55;101063.44;5013473;28;20115;-72
2022/10/07 03:08:01;;;;;;;2.55;0.65;;;;;;;12.09;96.83;101066.59;5026296;28;20060;-72
2022/10/07 03:10:27;;;;;;;2.47;0.85;;;;;;;12.15;96.55;101061.97;5017805;28;20048;-73
2022/10/07 03:12:54;;;;;;;3.72;1.10;;;;;;;12.26;95.45;101058.22;5028791;28;20477;-72
2022/10/07 03:15:20;;;;;;;4.80;0.98;;;;;;;12.28;95.47;101050.59;5023454;28;20060;-74
2022/10/07 03:17:46;;;;;;;6.75;1.27;;;;;;;12.31;95.01;101041.00;5011266;28;20021;-72
2022/10/07 03:20:13;;;;;;;3.63;0.70;;;;;;;12.25;94.82;101039.31;5039500;28;20128;-74
2022/10/07 03:22:40;;;;;;;4.45;0.93;;;;;;;12.14;95.38;101035.66;5015853;28;20032;-74
2022/10/07 03:25:05;;;;;;;7.53;1.08;;;;;;;12.03;95.89;101035.56;5017740;28;20053;-73
2022/10/07 03:27:31;;;;;;;2.38;1.00;;;;;;;11.94;96.86;101050.81;4978563;28;20371;-72
2022/10/07 03:29:57;;;;;;;6.78;0.90;;;;;;;11.86;97.86;101043.06;5021706;28;20053;-72
2022/10/07 03:32:26;;;;;;;6.95;1.02;;;;;;;11.79;97.88;101042.44;4998858;28;20034;-72
2022/10/07 03:34:52;;;;;;;4.30;0.85;;;;;;;11.69;98.81;101038.50;5024036;28;20025;-72
2022/10/07 03:37:17;;;;;;;6.65;1.38;;;;;;;11.64;98.61;101046.69;5065788;28;20480;-71
2022/10/07 03:39:42;;;;;;;2.80;0.90;;;;;;;11.56;99.36;101040.84;5049117;28;20026;-73
2022/10/07 03:42:08;;;;;;;1.35;0.50;;;;;;;11.50;99.29;101039.94;5013175;28;20101;-73
2022/10/07 03:44:34;;;;;;;1.35;0.38;;;;;;;11.43;99.62;101039.31;5015021;28;20040;-73
2022/10/07 03:47:00;;;;;;;3.05;0.70;;;;;;;11.33;99.72;101024.44;5014586;28;20025;-73
2022/10/07 03:49:26;;;;;;;1.85;0.63;;;;;;;11.34;99.78;101026.06;5005043;28;20037;-72
2022/10/07 03:51:51;;;;;;;2.33;0.75;;;;;;;11.44;99.70;101021.81;5038087;28;20044;-74
2022/10/07 03:54:16;;;;;;;1.95;0.60;;;;;;;11.47;99.85;101018.56;4997981;28;20502;-72
2022/10/07 03:56:42;;;;;;;1.50;0.60;;;;;;;11.45;99.72;101012.53;5002373;28;20415;-72
2022/10/07 03:59:07;;;;;;;2.60;0.63;;;;;;;11.44;99.21;101008.94;5027496;28;20040;-73
2022/10/07 04:01:33;;;;;;;3.95;1.77;;;;;;;11.44;99.26;101008.13;5012903;28;20029;-72
2022/10/07 04:04:02;;;;;;;3.38;0.68;;;;;;;11.41;99.75;101014.13;5003825;28;20040;-74
2022/10/07 04:06:28;;;;;;;4.35;0.80;;;;;;;11.40;99.86;101006.97;5042365;28;20056;-72
2022/10/07 04:08:54;;;;;;;1.48;0.55;;;;;;;11.37;99.87;101012.97;5004038;28;20021;-73
2022/10/07 04:11:20;;;;;;;0.98;0.43;;;;;;;11.30;99.62;101007.69;5019697;28;20168;-72
2022/10/07 04:13:47;;;;;;;6.13;0.90;;;;;;;11.25;100.00;101008.47;5006842;28;20030;-73
2022/10/07 04:16:13;;;;;;;2.35;0.80;;;;;;;11.33;99.61;101008.00;5007634;28;20048;-72
2022/10/07 04:18:40;;;;;;;1.55;0.63;;;;;;;11.37;99.87;101002.84;5028288;28;20124;-72
2022/10/07 04:21:06;;;;;;;2.53;0.80;;;;;;;11.38;100.00;100999.03;5024339;28;20045;-74
2022/10/07 04:23:39;;;;;;;4.38;1.20;;;;;;;11.41;100.00;101009.47;5028258;28;20033;-71
2022/10/07 04:26:10;;;;;;;4.97;0.90;;;;;;;11.45;100.00;101004.31;5017543;28;20025;-72
2022/10/07 04:28:44;;;;;;;7.63;1.40;;;;;;;11.47;99.86;100999.38;5034647;28;20025;-73
2022/10/07 04:31:10;;;;;;;9.38;1.35;;;;;;;11.56;99.82;101000.56;5029518;28;20025;-72
2022/10/07 04:33:45;;;;;;;4.60;1.25;;;;;;;11.69;99.63;101000.13;5022328;28;20037;-71
2022/10/07 04:36:11;;;;;;;6.60;1.05;;;;;;;11.70;99.34;100996.31;5031330;28;20030;-73
2022/10/07 04:38:45;;;;;;;5.35;1.15;;;;;;;11.67;99.31;100983.16;5014954;28;20067;-72
2022/10/07 04:41:13;;;;;;;4.00;1.02;;;;;;;11.69;99.88;100999.31;5016746;28;20104;-72
2022/10/07 04:44:12;;;;;;;5.07;1.00;;;;;;;11.61;100.00;100989.66;4968962;28;20045;-72
2022/10/07 04:46:58;;;;;;;4.22;0.90;;;;;;;11.67;99.92;100987.81;5055485;28;20095;-71
2022/10/07 04:49:27;;;;;;;3.03;0.60;;;;;;;11.66;100.00;100983.41;5025111;28;20030;-72
2022/10/07 04:51:54;;;;;;;6.35;1.27;;;;;;;11.77;100.00;100996.13;5023015;28;20030;-71
2022/10/07 04:54:20;;;;;;;4.43;0.73;;;;;;;11.74;100.00;100971.16;5036092;28;20058;-72
2022/10/07 04:56:53;;;;;;;6.88;1.00;;;;;;;11.81;100.00;100983.56;5047579;28;20042;-73
2022/10/07 04:59:21;;;;;;;11.18;1.58;;;;;;;11.84;99.92;100973.97;5032879;28;20026;-72
2022/10/07 05:01:47;;;;;;;7.40;1.35;;;;;;;11.79;99.32;100980.25;5031957;28;20167;-71
2022/10/07 05:04:13;;;;;;;7.22;1.20;;;;;;;11.69;100.00;100978.22;5012043;28;20029;-71
2022/10/07 05:06:38;;;;;;;6.15;1.55;;;;;;;11.65;100.00;100971.63;4981542;28;20072;-73
2022/10/07 05:09:07;;;;;;;10.55;1.30;;;;;;;11.66;100.00;100978.75;5000133;28;20042;-72
2022/10/07 05:11:49;;;;;;;;;;;;;;;;;;;;;
2022/10/07 05:14:18;;;;;;;6.97;1.17;;;;;;;11.53;100.00;100960.00;5052741;28;20056;-72
2022/10/07 05:16:58;;;;;;;5.22;1.05;;;;;;;11.56;100.00;100967.69;5031114;28;20112;-71
2022/10/07 05:20:08;;;;;;;;;;;;;;;;;;;;;
2022/10/07 05:22:51;;;;;;;7.82;1.27;;;;;;;11.44;100.00;100962.38;5014289;28;20053;-72
2022/10/07 05:25:23;;;;;;;5.72;1.73;;;;;;;11.41;100.00;100967.56;4989657;28;20037;-74
2022/10/07 05:27:52;;;;;;;3.47;1.10;;;;;;;11.30;100.00;100959.25;5049343;28;20028;-72
2022/10/07 05:30:18;;;;;;;7.93;1.20;;;;;;;11.27;100.00;100957.03;5047229;28;20053;-76
2022/10/07 05:32:44;;;;;;;5.20;1.15;;;;;;;11.16;100.00;100950.59;5009579;28;20018;-73
2022/10/07 05:35:09;;;;;;;3.05;0.73;;;;;;;11.24;100.00;100952.03;5017366;28;20026;-73
2022/10/07 05:37:35;;;;;;;2.80;0.80;;;;;;;11.17;100.00;100945.97;5004308;28;20035;-72
2022/10/07 05:40:00;;;;;;;2.63;0.75;;;;;;;11.12;100.00;100940.44;5025294;28;20042;-73
2022/10/07 05:42:26;;;;;;;3.90;1.30;;;;;;;11.13;100.00;100948.38;4999758;28;20175;-73
2022/10/07 05:44:51;;;;;;;8.35;1.25;;;;;;;11.12;100.00;100941.25;5014966;28;20491;-72
2022/10/07 05:47:17;;;;;;;6.60;0.90;;;;;;;11.16;100.00;100941.56;5013531;28;20113;-72
2022/10/07 05:49:43;;;;;;;5.00;1.20;;;;;;;11.13;100.00;100940.16;4933789;28;20011;-72
2022/10/07 05:52:08;;;;;;;7.25;1.17;;;;;;;11.15;100.00;100937.16;4977115;28;20062;-73
2022/10/07 05:54:33;;;;;;;1.05;0.43;;;;;;;11.12;100.00;100934.94;5052609;28;20510;-72
2022/10/07 05:56:59;;;;;;;3.60;0.82;;;;;;;11.08;100.00;100933.81;5042347;28;20022;-74
2022/10/07 05:59:24;;;;;;;2.28;0.52;;;;;;;11.04;100.00;100932.66;5027968;28;20034;-73
2022/10/07 06:01:50;;;;;;;2.15;0.70;;;;;;;10.97;100.00;100922.75;5007914;28;20030;-72
2022/10/07 06:04:15;;;;;;;2.28;0.65;;;;;;;10.93;100.00;100931.72;5019448;28;20047;-73
2022/10/07 06:06:41;;;;;;;6.57;0.88;;;;;;;10.90;100.00;100916.63;4982956;28;20060;-74
2022/10/07 06:14:34;;;;;;;4.95;0.98;;;;;;;10.89;100.00;100931.41;5028797;28;20040;-72
2022/10/07 06:17:00;;;;;;;4.53;1.08;;;;;;;10.86;100.00;100929.19;4995616;28;20038;-72
2022/10/07 06:19:25;;;;;;;7.88;1.33;;;;;;;10.87;100.00;100919.91;5013063;28;20025;-73
2022/10/07 06:21:51;;;;;;;6.53;0.88;;;;;;;10.87;100.00;100922.63;5015140;28;20037;-74
2022/10/07 06:24:16;;;;;;;8.20;1.27;;;;;;;10.93;100.00;100926.25;5021679;28;20029;-73
2022/10/07 06:26:42;;;;;;;7.63;1.25;;;;;;;10.98;100.00;100921.66;5021719;28;20025;-74
2022/10/07 06:29:08;;;;;;;5.40;1.10;;;;;;;10.98;100.00;100907.13;5020806;28;20050;-72
2022/10/07 06:31:34;;;;;;;5.57;1.63;;;;;;;11.08;100.00;100914.66;5036188;28;20026;-72
2022/10/07 06:33:59;;;;;;;5.18;0.80;;;;;;;11.07;100.00;100910.25;5018027;28;20039;-72
2022/10/07 06:36:25;;;;;;;8.95;1.50;;;;;;;11.17;100.00;100913.13;5038735;28;20041;-73
2022/10/07 06:38:52;;;;;;;6.07;1.65;;;;;;;11.27;100.00;100918.69;5032777;28;20107;-73
2022/10/07 06:41:21;;;;;;;6.55;1.65;;;;;;;11.32;100.00;100918.72;5019380;28;20031;-71
2022/10/07 06:43:47;;;;;;;8.15;1.52;;;;;;;11.38;100.00;100921.53;5020011;28;20040;-73
2022/10/07 06:46:15;;;;;;;6.13;1.20;;;;;;;11.35;100.00;100907.25;5025283;28;20101;-74
2022/10/07 06:48:43;;;;;;;4.72;1.00;;;;;;;11.46;100.00;100912.81;5027556;28;20499;-74
2022/10/07 06:51:12;;;;;;;9.75;1.27;;;;;;;11.51;100.00;100915.63;5033782;28;20021;-72
2022/10/07 06:53:38;;;;;;;4.18;0.80;;;;;;;11.53;100.00;100902.47;5027906;28;20024;-72
2022/10/07 06:56:04;;;;;;;9.68;1.15;;;;;;;11.60;100.00;100903.09;5010475;28;20061;-73
2022/10/07 06:58:30;;;;;;;7.22;0.90;;;;;;;11.68;100.00;100910.00;5029213;28;20017;-74
2022/10/07 07:00:58;;;;;;;11.63;1.73;;;;;;;11.73;100.00;100906.50;5018724;28;20029;-75
2022/10/07 07:03:24;;;;;;;7.18;1.17;;;;;;;11.82;100.00;100915.88;5024379;28;20029;-73
2022/10/07 07:05:50;;;;;;;14.95;1.70;;;;;;;11.90;99.67;100907.19;5038182;28;20709;-73
2022/10/07 07:08:17;;;;;;;6.95;1.10;;;;;;;11.97;99.25;100902.31;5017629;28;20045;-72
2022/10/07 07:10:43;;;;;;;11.38;1.55;;;;;;;12.02;99.65;100899.59;5005161;28;20071;-73
2022/10/07 07:13:10;;;;;;;5.72;1.25;;;;;;;12.15;99.45;100908.44;5010740;28;20036;-73
2022/10/07 07:15:36;;;;;;;10.38;1.55;;;;;;;12.20;99.07;100916.72;5035112;28;20101;-73
2022/10/07 07:18:05;;;;;;;8.27;1.10;;;;;;;12.28;98.90;100902.50;5019509;28;20041;-74
2022/10/07 07:20:36;;;;;;;8.60;1.45;;;;;;;12.30;98.43;100894.84;5019672;28;20025;-73
2022/10/07 07:23:06;;;;;;;10.02;1.40;;;;;;;12.42;97.83;100904.78;5046909;28;20674;-73
2022/10/07 07:25:35;;;;;;;11.30;1.20;;;;;;;12.45;97.83;100906.97;5027394;28;20085;-73
2022/10/07 07:28:03;;;;;;;9.23;1.38;;;;;;;12.51;97.46;100914.13;5028370;28;20021;-75
2022/10/07 07:30:29;;;;;;;10.40;1.30;;;;;;;12.54;97.14;100910.84;5044865;28;20033;-74
2022/10/07 07:32:55;;;;;;;6.60;1.08;;;;;;;12.60;96.41;100914.44;5037984;28;20030;-75
2022/10/07 07:35:22;;;;;;;15.68;2.10;;;;;;;12.71;95.87;100905.97;5031370;28;20121;-73
2022/10/07 07:37:49;;;;;;;8.35;1.52;;;;;;;12.81;95.67;100909.88;5024684;28;20042;-73
2022/10/07 07:40:15;;;;;;;11.70;1.35;;;;;;;12.90;95.13;100897.28;5030892;28;20026;-74
2022/10/07 07:42:40;;;;;;;7.55;1.70;;;;;;;13.02;94.26;100906.06;5008913;28;20021;-74
2022/10/07 07:45:06;;;;;;;12.77;1.65;;;;;;;13.04;93.96;100903.91;4999014;28;20028;-74
2022/10/07 07:47:32;;;;;;;7.95;1.70;;;;;;;13.01;93.88;100900.84;5016023;28;20379;-74
2022/10/07 07:49:57;;;;;;;9.70;1.40;;;;;;;13.02;94.13;100910.75;5005310;28;20032;-73
2022/10/07 07:52:24;;;;;;;12.85;1.75;;;;;;;12.99;94.13;100906.63;5001721;28;20030;-73
2022/10/07 07:54:51;;;;;;;10.55;2.10;;;;;;;13.01;94.29;100914.59;4922048;28;20026;-72
2022/10/07 07:57:17;;;;;;;9.52;1.55;;;;;;;12.99;94.45;100917.59;5005862;28;20110;-72
2022/10/07 07:59:42;;;;;;;10.77;1.52;;;;;;;12.97;94.75;100917.06;5019330;28;20105;-72
2022/10/07 08:02:11;;;;;;;9.88;1.70;;;;;;;12.94;94.55;100909.38;5016699;28;20387;-74
2022/10/07 08:04:36;;;;;;;10.20;1.58;;;;;;;12.98;95.10;100920.63;5015159;28;20025;-73
2022/10/07 08:07:02;;;;;;;12.48;1.58;;;;;;;13.08;94.66;100904.16;5022371;28;20032;-74
2022/10/07 08:09:27;;;;;;;10.57;1.48;;;;;;;13.19;94.52;100905.03;5012560;28;20072;-74
2022/10/07 08:11:52;;;;;;;11.23;1.80;;;;;;;13.28;93.60;100914.38;5019479;28;20029;-72
2022/10/07 08:14:18;;;;;;;13.27;1.40;;;;;;;13.31;93.08;100902.84;5023401;28;20097;-73
2022/10/07 08:16:43;;;;;;;14.43;1.67;;;;;;;13.36;93.13;100905.66;4996546;28;20034;-74
2022/10/07 08:19:11;;;;;;;12.07;1.83;;;;;;;13.53;92.87;100893.56;5021111;28;20033;-73
2022/10/07 08:21:37;;;;;;;14.48;1.70;;;;;;;13.64;92.53;100889.72;5015511;28;20036;-73
2022/10/07 08:24:04;;;;;;;10.75;1.40;;;;;;;13.73;91.88;100892.75;5021359;28;20057;-72
2022/10/07 08:26:32;;;;;;;17.20;2.38;;;;;;;13.78;91.70;100896.31;5037187;28;20032;-74
2022/10/07 08:28:59;;;;;;;13.48;1.67;;;;;;;13.89;91.15;100904.53;5020350;28;20067;-73
2022/10/07 08:31:28;;;;;;;8.52;1.63;;;;;;;13.99;90.63;100895.44;5046991;28;20018;-72
2022/10/07 08:33:59;;;;;;;17.10;2.17;;;;;;;14.17;90.40;100902.31;5005982;28;20037;-73
2022/10/07 08:36:27;;;;;;;13.00;1.50;;;;;;;14.37;89.87;100896.75;5040955;28;20059;-74
2022/10/07 08:38:52;;;;;;;11.82;1.60;;;;;;;14.52;88.50;100897.81;5039032;28;20491;-72
2022/10/07 08:41:23;;;;;;;11.70;2.15;;;;;;;14.59;87.23;100892.81;5003527;28;20095;-73
2022/10/07 08:43:50;;;;;;;8.98;1.27;;;;;;;14.66;86.60;100896.13;5018573;28;20021;-70
2022/10/07 08:46:21;;;;;;;5.82;0.88;;;;;;;14.80;86.34;100888.88;4998709;28;20026;-73
2022/10/07 08:48:53;;;;;;;14.90;2.33;;;;;;;15.08;85.29;100900.28;5018882;28;20504;-72
2022/10/07 08:51:40;;;;;;;11.60;1.55;;;;;;;15.54;84.12;100893.63;5030014;28;20084;-73
2022/10/07 08:54:12;;;;;;;7.25;1.08;;;;;;;15.79;81.14;100884.34;5051268;28;20029;-73
2022/10/07 08:56:39;;;;;;;9.65;1.42;;;;;;;15.90;79.70;100881.50;5019497;28;20033;-73
2022/10/07 08:59:20;;;;;;;8.07;1.30;;;;;;;15.73;78.75;100888.25;5017114;28;20049;-72
2022/10/07 09:02:06;;;;;;;10.35;1.45;;;;;;;15.54;79.30;100891.69;5011037;28;20084;-72
2022/10/07 09:04:55;;;;;;;12.88;2.15;;;;;;;15.61;79.52;100887.78;5034914;28;20103;-72
2022/10/07 09:07:33;;;;;;;6.15;1.10;;;;;;;15.82;78.97;100892.03;5019286;28;20033;-72
2022/10/07 09:10:08;;;;;;;7.88;1.30;;;;;;;15.98;78.92;100883.63;5035512;28;20100;-73
2022/10/07 09:12:51;;;;;;;7.20;1.48;;;;;;;16.00;78.45;100875.88;5023900;28;20033;-75
2022/10/07 09:15:27;;;;;;;8.10;1.23;;;;;;;16.01;78.40;100872.81;5025432;28;20020;-73
2022/10/07 09:18:01;;;;;;;8.00;1.15;;;;;;;15.85;78.26;100871.34;5038370;28;20030;-72
2022/10/07 09:20:33;;;;;;;9.77;1.30;;;;;;;15.71;79.23;100873.91;5056467;28;20037;-72
2022/10/07 09:23:00;;;;;;;6.93;1.10;;;;;;;15.61;79.64;100869.31;5034018;28;20031;-73
2022/10/07 09:25:28;;;;;;;8.35;1.10;;;;;;;15.61;79.10;100868.47;5043151;28;20040;-72
2022/10/07 09:27:54;;;;;;;20.50;1.67;;;;;;;15.47;79.55;100869.16;5025262;28;20024;-72
2022/10/07 09:30:21;;;;;;;9.02;1.27;;;;;;;15.43;80.50;100865.31;5061147;28;20033;-72
2022/10/07 09:32:52;;;;;;;10.85;1.35;;;;;;;15.66;79.89;100857.44;5025162;28;20033;-75
2022/10/07 09:35:20;;;;;;;7.55;1.67;;;;;;;15.87;78.68;100860.81;5042596;28;20087;-72
2022/10/07 09:38:00;;;;;;;10.35;1.23;;;;;;;16.07;78.23;100859.00;5020226;28;20486;-73
2022/10/07 09:40:35;;;;;;;9.30;1.27;;;;;;;16.77;73.44;100858.41;5026163;28;20025;-73
2022/10/07 09:43:09;;;;;;;7.55;0.77;;;;;;;16.36;74.15;100856.97;5022958;28;20100;-72
2022/10/07 09:45:37;;;;;;;10.20;1.55;;;;;;;15.97;75.33;100859.91;5058991;28;20026;-75
2022/10/07 09:48:19;;;;;;;5.95;1.08;;;;;;;15.64;76.87;100845.88;5027895;28;20424;-74
2022/10/07 09:50:46;;;;;;;10.15;1.42;;;;;;;16.46;75.65;100841.44;5039715;28;20028;-73
2022/10/07 09:53:22;;;;;;;6.82;1.30;;;;;;;16.46;73.73;100845.00;5042133;28;20017;-72
2022/10/07 09:55:49;;;;;;;7.05;1.02;;;;;;;16.02;74.41;100848.84;5044087;28;20029;-71
2022/10/07 09:58:22;;;;;;;14.18;1.83;;;;;;;15.61;75.42;100829.91;5023484;28;20029;-72
2022/10/07 10:00:50;;;;;;;16.90;2.33;;;;;;;15.96;76.78;100828.75;5040307;28;20108;-72
2022/10/07 10:03:16;;;;;;;8.15;1.27;;;;;;;21.19;59.37;100839.25;5041294;28;20025;-72
2022/10/07 10:05:58;;;;;;;6.45;1.20;;;;;;;25.85;44.90;100846.34;5010189;28;20044;-73
2022/10/07 10:08:44;;;;;;;4.05;0.98;;;;;;;29.32;37.24;100853.81;5018899;28;20054;-71
2022/10/07 10:11:18;;;;;;;4.20;0.70;;;;;;;30.05;33.61;100850.53;5018928;28;20045;-72
2022/10/07 10:13:47;;;;;;;5.03;1.25;;;;;;;29.94;32.10;100833.53;5021233;28;20030;-71
2022/10/07 10:16:24;;;;;;;4.53;1.23;;;;;;;30.60;31.84;100838.47;5002723;28;20072;-71
2022/10/07 10:18:57;;;;;;;4.53;0.70;;;;;;;31.68;29.17;100833.28;5022643;28;20026;-72
2022/10/07 10:21:29;;;;;;;8.40;1.38;;;;;;;31.83;28.58;100854.72;5019881;28;20085;-72
2022/10/07 10:24:09;;;;;;;3.60;0.82;;;;;;;32.02;29.07;100844.19;5004175;28;20033;-72
2022/10/07 10:26:54;;;;;;;3.90;0.80;;;;;;;32.46;27.74;100828.03;4997396;28;20014;-73
2022/10/07 10:29:33;;;;;;;3.75;0.63;;;;;;;32.73;26.54;100825.56;5019207;28;20034;-71
2022/10/07 10:32:14;;;;;;;5.85;1.23;;;;;;;32.60;26.86;100821.53;5020391;28;20010;-72
2022/10/07 10:35:12;;;;;;;7.75;0.90;;;;;;;33.44;26.17;100828.50;5018745;28;20026;-70
2022/10/07 10:38:03;;;;;;;6.97;1.38;;;;;;;33.85;25.25;100830.66;5019947;28;20532;-72
2022/10/07 10:40:52;;;;;;;5.25;0.90;;;;;;;34.83;23.55;100816.34;5003124;28;20032;-70
2022/10/07 10:43:24;;;;;;;5.35;0.90;;;;;;;34.91;23.13;100804.47;5002535;28;20113;-72
2022/10/07 10:46:08;;;;;;;3.63;0.80;;;;;;;35.20;23.13;100815.47;5019112;28;20025;-72
2022/10/07 10:48:43;;;;;;;5.22;1.00;;;;;;;34.51;22.64;100804.13;5018645;28;20095;-71
2022/10/07 10:51:33;;;;;;;1.85;0.93;;;;;;;34.49;23.02;100800.94;5023746;28;20085;-72
2022/10/07 10:54:26;;;;;;;5.15;1.00;;;;;;;31.22;26.81;100780.28;4996778;28;20026;-72
2022/10/07 10:57:36;;;;;;;4.70;0.73;;;;;;;28.37;31.45;100784.19;5018573;28;20657;-72
2022/10/07 11:00:17;;;;;;;7.38;1.35;;;;;;;32.26;26.26;100794.53;5003372;28;20042;-71
2022/10/07 11:03:04;;;;;;;6.35;1.10;;;;;;;33.37;24.99;100784.03;5004934;28;20112;-72
2022/10/07 11:05:39;;;;;;;4.97;1.00;;;;;;;32.10;26.69;100777.94;4993893;28;20026;-72
2022/10/07 11:08:18;;;;;;;3.58;1.27;;;;;;;31.50;26.75;100786.00;5014927;28;20042;-73
2022/10/07 11:11:08;;;;;;;2.47;0.70;;;;;;;29.65;29.05;100759.19;5031127;28;20026;-73
2022/10/07 11:13:42;;;;;;;6.43;0.70;;;;;;;31.15;27.19;100752.84;5030440;28;20014;-72
2022/10/07 11:16:16;;;;;;;6.75;1.38;;;;;;;32.53;25.99;100766.56;5051197;28;20141;-73
2022/10/07 11:18:53;;;;;;;5.60;0.82;;;;;;;33.69;24.45;100760.31;5022943;28;20029;-73
2022/10/07 11:21:31;;;;;;;6.10;1.10;;;;;;;34.30;23.29;100761.78;5023499;28;20049;-72
2022/10/07 11:24:27;;;;;;;4.90;1.10;;;;;;;34.37;23.14;100754.00;5022388;28;20072;-71
2022/10/07 11:26:58;;;;;;;3.35;0.70;;;;;;;30.89;26.64;100729.34;5034168;28;20013;-72
2022/10/07 11:29:46;;;;;;;3.20;0.90;;;;;;;30.45;27.70;100739.66;5032138;28;20171;-71
2022/10/07 11:32:16;;;;;;;7.53;1.05;;;;;;;26.95;32.93;100737.16;5019725;28;20036;-72
2022/10/07 11:35:05;;;;;;;3.60;1.02;;;;;;;26.61;34.64;100724.81;5031111;28;20035;-72
2022/10/07 11:41:19;;;;;;;3.47;1.02;;;;;;;34.60;22.75;100722.09;5040550;28;20067;-72
2022/10/07 11:44:20;;;;;;;3.97;0.80;;;;;;;34.55;22.08;100724.59;5038783;28;20836;-73
2022/10/07 11:50:35;;;;;;;2.88;0.70;;;;;;;24.66;37.78;100691.16;4912697;29;20050;-73
2022/10/07 11:53:07;;;;;;;7.60;1.30;;;;;;;26.75;34.03;100682.25;4942966;29;20034;-73
2022/10/07 11:55:39;;;;;;;5.32;1.10;;;;;;;25.66;36.18;100692.22;4938799;28;20034;-73
2022/10/07 11:58:05;;;;;;;3.28;1.00;;;;;;;23.59;40.03;100681.06;5024388;28;20037;-73